Rafael Rangel

Chefscout - Leones
17 Jul 2027
Samstag
Verarbeitung

Persönlichkeit

Anpassungsfähigkeit (5) Ehrgeiz (1) Kontroverse (10) Loyalität (12) Druck (17) Professionalität (8) Fairness (15) Temperament (13)

Profil

Trainerstil Demokratisch
Lizenz Kontinentale C
Entschlossenheit 10
Menschenführung 4
Motivation 9
Disziplin 9
Arbeitszufriedenheit
89%
Ermüdung
0%
Rolle Chefscout
Gehalt 25.7K p/W
Vertrag 14.03.2029

Leistung

Verhalten Gut
Trainingseffektivität
28%
Spielerentwicklung
30%
Verletzungsprävention
40%
Taktische Umsetzung
35%

Letzte Ereignisse

Nahm an einer Scouting-Besprechung teil 7T her
Nahm an einer Scouting-Besprechung teil 14T her
Nahm an einer Scouting-Besprechung teil 21T her
Nahm an einer Scouting-Besprechung teil 28T her
Nahm an einer Scouting-Besprechung teil 35T her
Nahm an einer Scouting-Besprechung teil 42T her
Nahm an einer Scouting-Besprechung teil 49T her
Nahm an einer Scouting-Besprechung teil 56T her

Aktuell beobachtet

150
Spieler Verein Status Fähigkeit Vertrauen Beobachtet Zuletzt beobachtet Letzte Stimme
Yovany García Depor Aktiv 88 / 81 41% 1 21.12.2026 -
Yefri Velasco Llaneros Aktiv 82 / 87 41% 1 07.12.2026 -
Leandro Suhr Piast Aktiv 108 / 114 40% 2 28.11.2026 -
Agustín Venezia Iquique Aktiv 115 / 108 40% 2 28.11.2026 -
Aaron Spetale Quilmes Aktiv 125 / 114 40% 2 28.11.2026 -
Franco Fagúndez Estudiantes Aktiv 106 / 111 40% 1 28.11.2026 -
Juan David Rueda Alianza Petrolera Aktiv 118 / 104 40% 2 26.11.2026 -
Darío Rostagno Estudiantes Aktiv 112 / 110 40% 1 25.11.2026 -
Alan Barrionuevo Tigre Aktiv 128 / 121 40% 1 25.11.2026 -
Ánderson Mojica Charleroi Aktiv 93 / 88 40% 1 24.11.2026 -
Isaac Matondo Koper Aktiv 117 / 99 40% 1 22.11.2026 -
Driton Camaj Novi Pazar Aktiv 123 / 108 40% 1 21.11.2026 -
Gaspar Duarte Rosario Central Aktiv 119 / 115 40% 1 20.11.2026 -
Matías Gallegos Antofagasta Aktiv 111 / 98 40% 1 19.11.2026 -
Enzo Avaro Mitre Aktiv 102 / 112 40% 1 18.11.2026 -
Joshuan Berríos Carabobo Aktiv 110 / 104 40% 5 17.11.2026 -
Mateo Mendoza Godoy Cruz Aktiv 130 / 125 40% 1 17.11.2026 -
Bruno Palazzo Nueva Chicago Aktiv 100 / 108 40% 1 17.11.2026 -
Enzo González Defensores Aktiv 99 / 107 40% 2 16.11.2026 -
Blas Armoa Gimnasia y Esgrima Aktiv 125 / 113 40% 2 16.11.2026 -
Nicolás Fernández Maipú Aktiv 103 / 108 40% 1 15.11.2026 -
Alejandro Molina Tristán Suárez Aktiv 112 / 116 40% 1 15.11.2026 -
Federico Marín Colegiales Aktiv 106 / 106 40% 1 14.11.2026 -
Franco Díaz Temperley Aktiv 132 / 124 40% 1 14.11.2026 -
Tomás Porra Barracas Central Aktiv 119 / 123 40% 2 13.11.2026 -
Agustín Benítez Defensores Aktiv 122 / 112 40% 1 13.11.2026 -
Maico Quiroz Güemes Aktiv 109 / 109 40% 1 12.11.2026 -
Santiago Jiménez Deportivo Pasto Aktiv 108 / 119 40% 1 12.11.2026 -
Thiago Vecino O'Higgins Aktiv 92 / 107 40% 3 09.11.2026 -
Dilan Ortíz Ufa Aktiv 113 / 102 40% 1 09.11.2026 -
Facundo Centurión Alvarado Aktiv 106 / 98 40% 1 09.11.2026 -
Eric Meza Estudiantes Aktiv 126 / 129 40% 1 09.11.2026 -
Juan Larios Piast Aktiv 113 / 126 40% 1 07.11.2026 -
Franco Quinteros Estudiantes Aktiv 108 / 113 40% 1 07.11.2026 -
Eugenio Olivera Talleres Aktiv 90 / 94 40% 1 06.11.2026 -
Matías Contrera Northampton Town Aktiv 99 / 95 40% 1 06.11.2026 -
Francisco Bonfiglio Boston River Aktiv 111 / 104 40% 2 05.11.2026 -
Alexander Díaz Deportivo Riestra Aktiv 108 / 120 40% 3 05.11.2026 -
Gianluca Pugliese Güemes Aktiv 111 / 108 40% 1 04.11.2026 -
Juan Cruz Zurbriggen San Telmo Aktiv 93 / 98 40% 1 04.11.2026 -
Agustín Maidana San Marcos de Arica Aktiv 99 / 101 40% 1 03.11.2026 -
Julián Marchio San Martín SJ Aktiv 103 / 104 40% 1 03.11.2026 -
Santiago Guzmán Lanús Aktiv 116 / 104 40% 1 01.11.2026 -
Luis Olivera Defensores Unidos Aktiv 115 / 108 40% 1 31.10.2026 -
Luis Jiménez Jaguares Aktiv 101 / 116 40% 1 31.10.2026 -
Diego Hernández Aguilas Doradas Aktiv 117 / 120 40% 1 30.10.2026 -
Juan David Bacca Iquique Aktiv 91 / 88 40% 1 28.10.2026 -
Elías Torres Racing Club Aktiv 130 / 118 40% 1 28.10.2026 -
Jonás Luna Wanderers Aktiv 105 / 122 40% 1 27.10.2026 -
Sebastián Moreno Patriotas Aktiv 102 / 100 40% 1 25.10.2026 -
Fernando Mimbacas Juventud Aktiv 109 / 116 40% 1 24.10.2026 -
Francisco Bareiro Vaduz Aktiv 87 / 104 40% 1 24.10.2026 -
Javier Mena Aguilas Doradas Aktiv 119 / 118 40% 1 24.10.2026 -
Diego Gallegos Morelia Aktiv 94 / 108 40% 1 24.10.2026 -
Duván Riascos Exeter City Aktiv 84 / 84 40% 1 22.10.2026 -
Fabrizio Sartori Independiente Rivadavia Aktiv 124 / 119 40% 2 21.10.2026 -
Germán Cervera Alvarado Aktiv 91 / 105 40% 1 20.10.2026 -
Camilo Machado Madryn Aktiv 107 / 104 40% 1 20.10.2026 -
Marcos Machado Mitre Aktiv 114 / 103 40% 1 20.10.2026 -
Favio Cabral Mitre Aktiv 129 / 115 40% 2 18.10.2026 -
Patrick Preciado Deportivo Pasto Aktiv 90 / 113 40% 1 18.10.2026 -
Lisandro Cabrera Maipú Aktiv 116 / 107 40% 1 17.10.2026 -
Luciano Cosentino Wanderers Aktiv 113 / 127 40% 1 15.10.2026 -
Rodrigo Cáseres Union La Calera Aktiv 104 / 110 40% 1 14.10.2026 -
Thiago Calone All Boys Aktiv 111 / 107 40% 1 14.10.2026 -
Franco García Ferro Carril Oeste Aktiv 108 / 105 40% 1 14.10.2026 -
Sebastián Cocimano Nueva Chicago Aktiv 119 / 105 40% 1 13.10.2026 -
Antony Alonso Deportivo Riestra Aktiv 127 / 116 40% 1 13.10.2026 -
Facundo Nadalín San Martín SJ Aktiv 119 / 121 40% 1 11.10.2026 -
Axel Guerra Chacarita Juniors Aktiv 118 / 103 40% 1 11.10.2026 -
Ronaldo De Jesús Lanús Aktiv 132 / 115 40% 1 09.10.2026 -
Facundo Melillán Güemes Aktiv 113 / 107 40% 1 09.10.2026 -
Marcos Camarda Santiago Wanderers Aktiv 97 / 101 40% 1 07.10.2026 -
Marcelo Flores Tigres Aktiv 113 / 114 40% 3 05.10.2026 -
Federico Álvarez Atlanta Aktiv 113 / 108 40% 1 05.10.2026 -
Cristian Barros Cerro Aktiv 105 / 105 40% 1 04.10.2026 -
Santiago Apa All Boys Aktiv 115 / 116 40% 1 04.10.2026 -
Bianneider Tamayo Universidad de Chile Aktiv 94 / 112 40% 2 02.10.2026 -
Cristián Gutiérrez Union La Calera Aktiv 114 / 108 40% 1 02.10.2026 -
Maximiliano Rodríguez Huachipato Aktiv 112 / 110 40% 1 02.10.2026 -
Iván Maggi Sportivo Luqueno Aktiv 113 / 115 40% 3 01.10.2026 -
Genaro Rossi San Martín SJ Aktiv 110 / 106 40% 1 01.10.2026 -
Juan Manuel Zapata Envigado Aktiv 109 / 112 40% 1 30.09.2026 -
Valentín Fenoglio Estudiantes Aktiv 119 / 119 40% 1 29.09.2026 -
Nicolás Castro Toluca Aktiv 145 / 134 40% 1 29.09.2026 -
Emiliano Saliadarre Miramar Misiones Aktiv 103 / 116 40% 1 27.09.2026 -
Jorge Obregón Deportivo Pasto Aktiv 108 / 116 40% 1 27.09.2026 -
Alejo Macelli Cerro Aktiv 112 / 108 40% 1 27.09.2026 -
Julián Brea Cobresal Aktiv 97 / 98 40% 2 25.09.2026 -
Ignacio Yepez Cerrito Aktiv 118 / 115 40% 1 25.09.2026 -
Stiven Vega Millonarios Aktiv 125 / 118 40% 1 24.09.2026 -
Leison Cuero Colon Aktiv 95 / 95 40% 1 24.09.2026 -
Lautaro Lovazzano Portuguesa Aktiv 96 / 104 40% 1 23.09.2026 -
Segundo Pachamé Plaza Colonia Aktiv 114 / 107 40% 1 23.09.2026 -
Nathan Ordaz DC United Aktiv 92 / 115 40% 1 21.09.2026 -
Eric Ramírez Carabobo Aktiv 122 / 112 40% 4 20.09.2026 -
Michael Vadulli Audax Italiano Aktiv 116 / 114 40% 1 17.09.2026 -
Marin Benko Zadar Aktiv 147 / 126 40% 1 17.09.2026 -
Guillermo Paiva Junior Aktiv 119 / 122 40% 1 16.09.2026 -
Santiago Córdoba Deportivo Pasto Aktiv 89 / 112 40% 1 16.09.2026 -
Santiago Homenchenko Queretaro Aktiv 102 / 124 40% 2 15.09.2026 -
Rafael Haller Liverpool Montevideo Aktiv 109 / 103 40% 1 15.09.2026 -
Víctor Machado Independiente Rivadavia Aktiv 94 / 89 40% 1 15.09.2026 -
Néiser Villarreal Cruzeiro Aktiv 96 / 104 40% 1 14.09.2026 -
Jáder Valencia Deportes Tolima Aktiv 128 / 107 40% 1 11.09.2026 -
Oscar Ferraresi Llaneros Aktiv 120 / 101 40% 1 11.09.2026 -
Aldair Zárate Atletico Bucaramanga Aktiv 129 / 115 40% 1 11.09.2026 -
Santiago Simón Toluca Aktiv 97 / 127 40% 1 10.09.2026 -
Aarón Astudillo Cobresal Aktiv 82 / 83 40% 1 10.09.2026 -
José Pérez Portuguesa Aktiv 89 / 97 40% 2 06.09.2026 -
Lautaro Mora Huracán Aktiv 99 / 117 40% 1 06.09.2026 -
Diego Martinez La Equidad Aktiv 141 / 129 40% 1 06.09.2026 -
José Balza Deportivo Tachira Aktiv 119 / 100 40% 1 03.09.2026 -
Diego Betancourth General Diaz Aktiv 93 / 83 40% 1 02.09.2026 -
Thiago Ponce Rosario Central Aktiv 97 / 107 40% 1 02.09.2026 -
Santiago Herrera Trujillanos Aktiv 83 / 96 40% 1 30.08.2026 -
Jimmy Evans Universidad Catolica Aktiv 109 / 109 40% 1 29.08.2026 -
César Salazar Mineros de Guayana Aktiv 100 / 92 40% 1 28.08.2026 -
César Magallan Estudiantes de Merida Aktiv 118 / 105 40% 1 26.08.2026 -
Sebastián Parada San Luis Aktiv 92 / 89 40% 1 25.08.2026 -
Mateo Garavito Deportivo Pasto Aktiv 136 / 120 40% 1 25.08.2026 -
Kevin Palacios Santos Laguna Aktiv 108 / 113 40% 1 24.08.2026 -
Yerco Oyanedel Universidad de Concepcion Aktiv 96 / 109 40% 1 24.08.2026 -
Alejandro Piedrahita Deportivo Pereira Aktiv 105 / 120 40% 2 22.08.2026 -
Jeriel De Santis Caracas Aktiv 107 / 110 40% 2 22.08.2026 -
Oscar Osorio Atletico Venezuela Aktiv 113 / 112 40% 1 21.08.2026 -
Alexei Dominguez Pachuca Aktiv 103 / 114 40% 1 20.08.2026 -
Ryan Mmaee Atlas Aktiv 100 / 117 40% 1 19.08.2026 -
David Camacho UTC Aktiv 118 / 113 40% 1 19.08.2026 -
Gonzalo Córdoba Mitre Aktiv 106 / 103 40% 1 19.08.2026 -
Alberto Benítez Villalba General Caballero Aktiv 105 / 97 40% 1 15.08.2026 -
Francisco Galván Deportivo Municipal Aktiv 106 / 114 40% 1 15.08.2026 -
Brayan Hurtado Antofagasta Aktiv 111 / 93 40% 2 14.08.2026 -
Yolfran Caricote Metropolitanos Aktiv 98 / 99 40% 1 14.08.2026 -
Sebastián Vargas Nacional Aktiv 99 / 107 40% 1 14.08.2026 -
Michael Nike Patriotas Aktiv 105 / 104 40% 1 13.08.2026 -
José Rivas Gamboa Trujillanos Aktiv 113 / 94 40% 1 12.08.2026 -
Richard Torales Guarani Aktiv 95 / 105 40% 1 12.08.2026 -
José Delgado Iquique Aktiv 75 / 74 40% 1 12.08.2026 -
Agustín Bianciotti Metropolitanos Aktiv 109 / 104 40% 1 08.08.2026 -
Nelson Da Silva Palestino Aktiv 105 / 98 40% 1 07.08.2026 -
Luis Iberico Sporting Cristal Aktiv 101 / 116 40% 1 06.08.2026 -
Luifer Hernández Puebla Aktiv 122 / 85 40% 1 06.08.2026 -
Kleyder Barreto Estudiantes de Caracas Aktiv 102 / 85 40% 1 06.08.2026 -
Mauricio Márquez Caracas Aktiv 99 / 95 40% 1 05.08.2026 -
Alexis Gutiérrez Club America Aktiv 118 / 121 40% 1 05.08.2026 -
José Rivera Universitario Aktiv 108 / 114 40% 1 02.08.2026 -
Franco Ayunta Temperley Aktiv 99 / 106 40% 1 02.08.2026 -
Augusto Berrondo Tristán Suárez Aktiv 111 / 114 40% 1 01.08.2026 -
Javier Martínez Almirante Brown Aktiv 120 / 102 40% 1 01.08.2026 -